createdAt,value
2019-04-07T00:02:42.265Z,6.10
2019-04-07T00:05:47.270Z,6.80
2019-04-07T00:08:52.312Z,6.03
2019-04-07T00:11:57.364Z,6.67
2019-04-07T00:15:02.293Z,6.77
2019-04-07T00:18:07.793Z,6.07
2019-04-07T00:21:13.584Z,5.80
2019-04-07T00:24:19.273Z,6.87
2019-04-07T00:27:24.498Z,7.57
2019-04-07T00:30:29.548Z,8.50
2019-04-07T00:33:34.528Z,8.23
2019-04-07T00:36:39.653Z,7.90
2019-04-07T00:39:44.721Z,7.00
2019-04-07T00:42:50.190Z,7.63
2019-04-07T00:45:55.884Z,8.23
2019-04-07T00:49:00.925Z,6.60
2019-04-07T00:52:07.107Z,6.43
2019-04-07T00:55:12.161Z,6.30
2019-04-07T00:58:17.212Z,6.57
2019-04-07T01:01:22.841Z,6.87
2019-04-07T01:04:27.829Z,7.00
2019-04-07T01:07:33.402Z,5.83
2019-04-07T01:10:38.561Z,6.60
2019-04-07T01:13:43.496Z,5.70
2019-04-07T01:16:48.497Z,6.20
2019-04-07T01:19:53.580Z,6.47
2019-04-07T01:22:58.647Z,7.20
2019-04-07T01:26:03.662Z,6.60
2019-04-07T01:29:09.209Z,6.13
2019-04-07T01:32:14.798Z,6.40
2019-04-07T01:35:20.232Z,7.10
2019-04-07T01:38:25.757Z,6.07
2019-04-07T01:41:38.976Z,6.40
2019-04-07T01:45:03.077Z,5.57
2019-04-07T01:48:30.263Z,5.83
2019-04-07T01:51:57.632Z,5.13
2019-04-07T01:55:16.781Z,6.10
2019-04-07T01:58:44.642Z,6.03
2019-04-07T02:02:17.537Z,7.43
2019-04-07T02:05:40.783Z,7.37
2019-04-07T02:09:13.964Z,7.47
2019-04-07T02:12:35.241Z,7.60
2019-04-07T02:16:08.283Z,7.90
2019-04-07T02:19:48.256Z,8.90
2019-04-07T02:23:12.779Z,8.60
2019-04-07T02:26:27.847Z,9.33
2019-04-07T02:30:01.320Z,8.77
2019-04-07T02:33:31.202Z,8.90
2019-04-07T02:36:58.230Z,8.70
2019-04-07T02:40:13.689Z,8.00
2019-04-07T02:43:38.449Z,8.43
2019-04-07T02:46:53.397Z,7.67
2019-04-07T02:50:30.181Z,6.93
2019-04-07T02:53:55.196Z,7.30
2019-04-07T02:57:22.055Z,6.70
2019-04-07T03:00:36.605Z,7.17
2019-04-07T03:04:03.245Z,7.73
2019-04-07T03:07:14.516Z,7.60
2019-04-07T03:10:47.480Z,7.93
2019-04-07T03:14:12.391Z,6.27
2019-04-07T03:17:31.937Z,6.83
2019-04-07T03:20:44.214Z,7.23
2019-04-07T03:24:09.320Z,7.33
2019-04-07T03:27:24.037Z,7.53
2019-04-07T03:30:48.942Z,7.10
2019-04-07T03:34:06.675Z,8.70
2019-04-07T03:37:34.349Z,7.30
2019-04-07T03:40:49.817Z,8.70
2019-04-07T03:44:03.867Z,8.00
2019-04-07T03:47:18.800Z,8.97
2019-04-07T03:50:55.051Z,8.40
2019-04-07T03:54:08.948Z,7.90
2019-04-07T03:57:52.498Z,7.93
2019-04-07T04:01:29.938Z,7.57
2019-04-07T04:05:00.875Z,8.67
2019-04-07T04:08:31.681Z,7.93
2019-04-07T04:11:55.649Z,8.20
2019-04-07T04:15:04.546Z,7.87
2019-04-07T04:18:09.593Z,8.00
2019-04-07T04:21:15.309Z,8.20
2019-04-07T04:24:20.325Z,7.00
2019-04-07T04:27:25.325Z,7.63
2019-04-07T04:30:30.226Z,7.63
2019-04-07T04:33:35.133Z,7.47
2019-04-07T04:36:40.499Z,6.60
2019-04-07T04:39:46.287Z,6.40
2019-04-07T04:42:52.083Z,7.33
2019-04-07T04:45:57.682Z,7.97
2019-04-07T04:49:02.672Z,7.73
2019-04-07T04:52:07.987Z,8.93
2019-04-07T04:55:13.316Z,7.83
2019-04-07T04:58:18.366Z,8.63
2019-04-07T05:01:23.445Z,7.70
2019-04-07T05:04:29.303Z,8.33
2019-04-07T05:07:48.786Z,7.10
2019-04-07T05:10:41.581Z,7.50
2019-04-07T05:13:46.769Z,7.73
2019-04-07T05:16:52.474Z,7.90
2019-04-07T05:19:58.262Z,8.70
2019-04-07T05:23:04.074Z,8.03
2019-04-07T05:26:10.083Z,8.50
2019-04-07T05:29:15.897Z,9.07
2019-04-07T05:32:21.247Z,9.23
2019-04-07T05:35:26.576Z,10.47
2019-04-07T05:38:34.618Z,9.57
2019-04-07T05:41:39.621Z,9.20
2019-04-07T05:44:44.795Z,9.20
2019-04-07T05:47:50.760Z,9.10
2019-04-07T05:50:59.990Z,9.80
2019-04-07T05:54:04.120Z,7.07
2019-04-07T05:57:09.729Z,7.90
2019-04-07T06:00:16.649Z,6.83
2019-04-07T06:03:22.050Z,6.23
2019-04-07T06:06:26.965Z,5.30
2019-04-07T06:09:33.809Z,6.40
2019-04-07T06:12:41.540Z,6.23
2019-04-07T06:15:45.740Z,5.40
2019-04-07T06:18:51.123Z,6.70
2019-04-07T06:21:57.022Z,6.93
2019-04-07T06:25:03.878Z,6.73
2019-04-07T06:28:09.620Z,7.47
2019-04-07T06:31:14.662Z,7.70
2019-04-07T06:34:19.586Z,7.40
2019-04-07T06:37:28.834Z,6.50
2019-04-07T06:40:32.211Z,6.40
2019-04-07T06:43:39.765Z,7.37
2019-04-07T06:47:22.138Z,7.20
2019-04-07T06:50:54.803Z,6.10
2019-04-07T06:54:22.184Z,6.57
2019-04-07T06:57:45.029Z,6.67
2019-04-07T07:01:15.277Z,7.60
2019-04-07T07:04:45.804Z,6.50
2019-04-07T07:08:01.955Z,6.50
2019-04-07T07:11:34.752Z,7.33
2019-04-07T07:15:03.134Z,6.87
2019-04-07T07:18:35.926Z,6.77
2019-04-07T07:21:58.965Z,6.77
2019-04-07T07:25:04.204Z,7.07
2019-04-07T07:28:11.411Z,5.60
2019-04-07T07:31:16.687Z,6.30
2019-04-07T07:34:22.161Z,6.30
2019-04-07T07:37:28.009Z,6.47
2019-04-07T07:40:34.993Z,6.80
2019-04-07T07:43:40.277Z,6.10
2019-04-07T07:46:45.280Z,7.33
2019-04-07T07:49:50.854Z,9.17
2019-04-07T07:52:56.165Z,6.67
2019-04-07T07:56:02.068Z,6.43
2019-04-07T07:59:07.727Z,6.80
2019-04-07T08:02:14.747Z,6.70
2019-04-07T08:05:19.437Z,6.03
2019-04-07T08:08:25.240Z,5.30
2019-04-07T08:11:31.547Z,6.43
2019-04-07T08:14:37.277Z,6.10
2019-04-07T08:17:43.111Z,7.10
2019-04-07T08:20:48.057Z,6.63
2019-04-07T08:23:53.527Z,6.20
2019-04-07T08:26:59.355Z,5.90
2019-04-07T08:30:10.182Z,6.43
2019-04-07T08:33:12.651Z,5.97
2019-04-07T08:36:18.269Z,5.63
2019-04-07T08:39:26.654Z,6.37
2019-04-07T08:42:31.429Z,5.87
2019-04-07T08:45:37.098Z,6.17
2019-04-07T08:48:42.148Z,6.23
2019-04-07T08:51:47.191Z,6.60
2019-04-07T08:54:53.405Z,5.37
2019-04-07T08:58:01.711Z,6.87
2019-04-07T09:01:05.341Z,5.93
2019-04-07T09:04:11.041Z,5.30
2019-04-07T09:07:16.475Z,6.37
2019-04-07T09:10:34.455Z,6.47
2019-04-07T09:13:39.969Z,6.00
2019-04-07T09:17:04.987Z,5.73
2019-04-07T09:20:28.114Z,5.37
2019-04-07T09:23:49.185Z,4.97
2019-04-07T09:27:05.090Z,5.20
2019-04-07T09:30:17.144Z,5.00
2019-04-07T09:33:48.116Z,5.50
2019-04-07T09:37:08.332Z,5.10
2019-04-07T09:40:31.847Z,5.00
2019-04-07T09:43:55.208Z,4.80
2019-04-07T09:47:18.129Z,4.10
2019-04-07T09:50:32.483Z,5.00
2019-04-07T09:53:56.790Z,5.17
2019-04-07T09:57:40.952Z,5.00
2019-04-07T10:01:21.302Z,4.83
2019-04-07T10:04:44.037Z,4.90
2019-04-07T10:08:07.156Z,4.67
2019-04-07T10:11:40.293Z,5.07
2019-04-07T10:14:57.656Z,5.40
2019-04-07T10:18:09.820Z,5.20
2019-04-07T10:21:25.430Z,4.00
2019-04-07T10:24:48.313Z,3.77
2019-04-07T10:28:17.601Z,5.27
2019-04-07T10:31:31.640Z,5.20
2019-04-07T10:35:05.727Z,4.40
2019-04-07T10:38:21.398Z,4.40
2019-04-07T10:41:51.363Z,4.27
2019-04-07T10:45:16.324Z,5.03
2019-04-07T10:48:45.725Z,4.63
2019-04-07T10:51:59.262Z,4.17
2019-04-07T10:55:24.193Z,4.33
2019-04-07T10:58:37.847Z,4.07
2019-04-07T11:02:08.615Z,4.70
2019-04-07T11:05:41.260Z,4.70
2019-04-07T11:09:08.819Z,4.17
2019-04-07T11:12:49.052Z,3.93
2019-04-07T11:16:14.914Z,4.30
2019-04-07T11:19:31.069Z,4.43
2019-04-07T11:23:13.532Z,4.63
2019-04-07T11:26:41.783Z,8.80
2019-04-07T11:29:58.678Z,4.77
2019-04-07T11:33:20.947Z,4.97
2019-04-07T11:36:31.448Z,3.93
2019-04-07T11:39:46.370Z,4.40
2019-04-07T11:43:01.195Z,4.47
2019-04-07T11:46:31.408Z,4.57
2019-04-07T11:49:43.822Z,4.30
2019-04-07T11:53:02.698Z,4.70
2019-04-07T11:56:30.714Z,3.87
2019-04-07T11:59:51.302Z,3.70
2019-04-07T12:03:20.016Z,4.13
2019-04-07T12:06:39.534Z,2.90
2019-04-07T12:10:14.151Z,2.80
2019-04-07T12:13:34.892Z,2.30
2019-04-07T12:17:05.025Z,2.77
2019-04-07T12:20:18.456Z,2.80
2019-04-07T12:23:41.363Z,3.30
2019-04-07T12:27:04.801Z,2.77
2019-04-07T12:30:39.123Z,2.90
2019-04-07T12:34:02.828Z,3.30
2019-04-07T12:37:26.226Z,2.80
2019-04-07T12:41:12.505Z,3.00
2019-04-07T12:44:21.725Z,3.90
2019-04-07T12:47:46.069Z,3.90
2019-04-07T12:51:10.137Z,3.30
2019-04-07T12:54:53.598Z,4.03
2019-04-07T12:58:11.707Z,3.60
2019-04-07T13:01:49.579Z,3.30
2019-04-07T13:05:13.217Z,3.70
2019-04-07T13:08:56.914Z,4.17
2019-04-07T13:12:14.031Z,3.80
2019-04-07T13:15:51.282Z,3.60
2019-04-07T13:19:11.931Z,3.43
2019-04-07T13:22:26.165Z,3.70
2019-04-07T13:25:53.166Z,3.10
2019-04-07T13:29:07.162Z,3.23
2019-04-07T13:32:24.006Z,3.47
2019-04-07T13:35:48.834Z,3.33
2019-04-07T13:39:07.336Z,3.43
2019-04-07T13:42:18.285Z,3.60
2019-04-07T13:45:46.773Z,3.33
2019-04-07T13:49:17.475Z,3.57
2019-04-07T13:52:40.706Z,4.87
2019-04-07T13:55:59.518Z,4.43
2019-04-07T13:59:31.749Z,4.30
2019-04-07T14:02:50.577Z,4.40
2019-04-07T14:06:04.501Z,4.33
2019-04-07T14:09:32.384Z,3.73
2019-04-07T14:13:06.030Z,3.97
2019-04-07T14:16:30.144Z,4.00
2019-04-07T14:19:42.329Z,5.50
2019-04-07T14:23:15.334Z,3.67
2019-04-07T14:26:33.516Z,4.10
2019-04-07T14:30:01.396Z,3.67
2019-04-07T14:33:41.482Z,4.80
2019-04-07T14:37:12.018Z,3.90
2019-04-07T14:40:26.389Z,4.60
2019-04-07T14:43:50.784Z,3.90
2019-04-07T14:47:08.710Z,3.90
2019-04-07T14:50:28.448Z,3.50
2019-04-07T14:53:58.566Z,4.30
2019-04-07T14:57:11.631Z,3.77
2019-04-07T15:00:26.991Z,4.60
2019-04-07T15:03:33.142Z,4.70
2019-04-07T15:06:38.438Z,3.77
2019-04-07T15:09:51.261Z,3.93
2019-04-07T15:13:05.525Z,4.47
2019-04-07T15:16:11.161Z,3.40
2019-04-07T15:19:16.675Z,4.17
2019-04-07T15:22:25.823Z,4.00
2019-04-07T15:25:29.470Z,4.30
2019-04-07T15:28:34.923Z,3.93
2019-04-07T15:31:40.610Z,3.50
2019-04-07T15:34:46.439Z,3.90
2019-04-07T15:37:52.446Z,3.90
2019-04-07T15:40:58.929Z,4.17
2019-04-07T15:44:07.037Z,3.93
2019-04-07T15:47:11.364Z,4.20
2019-04-07T15:50:16.801Z,4.47
2019-04-07T15:53:22.086Z,3.60
2019-04-07T15:56:27.389Z,3.80
2019-04-07T15:59:33.073Z,4.10
2019-04-07T16:02:40.918Z,3.60
2019-04-07T16:05:46.329Z,3.37
2019-04-07T16:08:51.908Z,3.17
2019-04-07T16:11:58.846Z,3.60
2019-04-07T16:15:04.169Z,3.73
2019-04-07T16:18:09.109Z,3.90
2019-04-07T16:21:14.305Z,4.00
2019-04-07T16:24:21.890Z,3.80
2019-04-07T16:27:26.983Z,3.60
2019-04-07T16:30:32.800Z,4.30
2019-04-07T16:33:38.797Z,4.00
2019-04-07T16:36:44.643Z,4.00
2019-04-07T16:39:50.120Z,3.73
2019-04-07T16:43:09.559Z,3.77
2019-04-07T16:46:02.050Z,4.00
2019-04-07T16:49:07.787Z,4.57
2019-04-07T16:52:13.917Z,3.90
2019-04-07T16:55:37.073Z,3.63
2019-04-07T16:58:42.213Z,4.67
2019-04-07T17:01:47.132Z,3.87
2019-04-07T17:04:52.670Z,4.00
2019-04-07T17:07:58.113Z,4.00
2019-04-07T17:11:07.029Z,4.40
2019-04-07T17:14:10.595Z,3.70
2019-04-07T17:17:20.187Z,4.40
2019-04-07T17:20:25.756Z,4.70
2019-04-07T17:23:29.338Z,4.60
2019-04-07T17:26:37.366Z,4.73
2019-04-07T17:29:41.625Z,3.97
2019-04-07T17:32:46.954Z,3.43
2019-04-07T17:35:53.943Z,4.67
2019-04-07T17:39:09.605Z,4.03
2019-04-07T17:42:15.739Z,4.73
2019-04-07T17:45:35.512Z,4.77
2019-04-07T17:48:56.796Z,4.83
2019-04-07T17:52:16.804Z,4.00
2019-04-07T17:55:34.486Z,4.40
2019-04-07T17:58:58.731Z,4.50
2019-04-07T18:02:28.057Z,4.77
2019-04-07T18:05:39.589Z,6.10
2019-04-07T18:09:12.700Z,5.23
2019-04-07T18:12:35.758Z,5.90
2019-04-07T18:15:59.790Z,5.17
2019-04-07T18:19:28.779Z,6.10
2019-04-07T18:22:45.241Z,6.27
2019-04-07T18:26:09.861Z,9.60
2019-04-07T18:29:32.209Z,8.70
2019-04-07T18:32:56.472Z,9.77
2019-04-07T18:36:19.500Z,10.20
2019-04-07T18:39:55.447Z,9.23
2019-04-07T18:43:19.256Z,9.20
2019-04-07T18:46:47.821Z,7.50
2019-04-07T18:50:13.997Z,7.13
2019-04-07T18:54:00.402Z,8.37
2019-04-07T18:57:28.132Z,10.43
2019-04-07T19:01:08.641Z,8.20
2019-04-07T19:04:18.175Z,7.07
2019-04-07T19:07:48.705Z,7.17
2019-04-07T19:11:16.008Z,6.70
2019-04-07T19:14:42.427Z,6.70
2019-04-07T19:17:58.943Z,5.90
2019-04-07T19:21:31.592Z,8.03
2019-04-07T19:24:54.493Z,7.80
2019-04-07T19:28:17.760Z,6.80
2019-04-07T19:31:52.202Z,6.63
2019-04-07T19:35:23.123Z,7.43
2019-04-07T19:38:51.112Z,6.50
2019-04-07T19:42:22.333Z,7.37
2019-04-07T19:45:37.110Z,6.83
2019-04-07T19:49:02.242Z,6.10
2019-04-07T19:52:25.414Z,6.70
2019-04-07T19:55:37.276Z,5.73
2019-04-07T19:58:49.094Z,6.00
2019-04-07T20:02:12.195Z,6.30
2019-04-07T20:05:35.305Z,5.20
2019-04-07T20:08:53.952Z,6.10
2019-04-07T20:12:20.672Z,5.37
2019-04-07T20:15:36.521Z,7.57
2019-04-07T20:19:00.530Z,5.43
2019-04-07T20:22:15.368Z,5.70
2019-04-07T20:25:38.310Z,6.43
2019-04-07T20:29:06.375Z,6.40
2019-04-07T20:32:33.819Z,6.83
2019-04-07T20:35:48.921Z,6.47
2019-04-07T20:39:09.729Z,5.60
2019-04-07T20:42:46.392Z,6.30
2019-04-07T20:46:04.832Z,6.83
2019-04-07T20:49:40.293Z,5.83
2019-04-07T20:53:12.460Z,6.60
2019-04-07T20:56:47.120Z,6.37
2019-04-07T21:00:21.006Z,6.60
2019-04-07T21:03:57.863Z,6.43
2019-04-07T21:07:24.856Z,6.77
2019-04-07T21:10:37.999Z,5.93
2019-04-07T21:14:00.954Z,7.00
2019-04-07T21:17:13.971Z,6.70
2019-04-07T21:20:30.688Z,7.67
2019-04-07T21:24:10.303Z,7.30
2019-04-07T21:27:34.810Z,8.37
2019-04-07T21:30:46.195Z,8.20
2019-04-07T21:34:16.483Z,8.07
2019-04-07T21:37:47.451Z,8.13
2019-04-07T21:41:19.781Z,9.50
2019-04-07T21:44:43.764Z,11.43
2019-04-07T21:48:17.890Z,8.77
2019-04-07T21:51:51.455Z,8.03
2019-04-07T21:55:11.802Z,9.23
2019-04-07T21:58:39.851Z,8.57
2019-04-07T22:02:02.953Z,8.97
2019-04-07T22:05:37.057Z,10.03
2019-04-07T22:08:47.199Z,8.90
2019-04-07T22:11:54.606Z,7.83
2019-04-07T22:14:59.099Z,8.63
2019-04-07T22:18:07.574Z,8.17
2019-04-07T22:21:11.760Z,8.37
2019-04-07T22:24:16.901Z,7.57
2019-04-07T22:27:25.625Z,7.20
2019-04-07T22:30:28.581Z,7.90
2019-04-07T22:33:34.136Z,8.50
2019-04-07T22:36:43.737Z,9.53
2019-04-07T22:39:47.074Z,10.40
2019-04-07T22:42:52.227Z,10.20
2019-04-07T22:46:05.397Z,9.47
2019-04-07T22:49:04.178Z,10.20
2019-04-07T22:52:09.646Z,11.63
2019-04-07T22:55:14.866Z,10.50
2019-04-07T22:58:20.150Z,10.20
2019-04-07T23:01:25.343Z,9.50
2019-04-07T23:04:30.493Z,9.60
2019-04-07T23:07:35.507Z,8.80
2019-04-07T23:10:40.823Z,8.27
2019-04-07T23:13:45.929Z,8.97
2019-04-07T23:16:50.920Z,8.60
2019-04-07T23:19:56.513Z,9.10
2019-04-07T23:23:02.639Z,8.53
2019-04-07T23:26:07.902Z,8.97
2019-04-07T23:29:12.820Z,8.60
2019-04-07T23:32:17.843Z,8.50
2019-04-07T23:35:22.907Z,8.73
2019-04-07T23:38:28.807Z,8.73
2019-04-07T23:41:34.081Z,8.50
2019-04-07T23:44:39.424Z,9.30
2019-04-07T23:47:44.904Z,9.23
2019-04-07T23:50:49.924Z,9.20
2019-04-07T23:54:09.121Z,8.53
2019-04-07T23:57:14.362Z,8.13
